createdAt,value
2023-05-23T00:01:49.935Z,87.53
2023-05-23T00:04:20.507Z,86.77
2023-05-23T00:06:47.537Z,88.09
2023-05-23T00:09:15.267Z,88.76
2023-05-23T00:11:45.792Z,88.90
2023-05-23T00:14:13.952Z,88.46
2023-05-23T00:16:45.329Z,87.07
2023-05-23T00:19:15.501Z,87.13
2023-05-23T00:21:48.911Z,87.56
2023-05-23T00:24:18.997Z,87.22
2023-05-23T00:26:47.106Z,87.56
2023-05-23T00:29:16.663Z,86.59
2023-05-23T00:31:47.217Z,86.13
2023-05-23T00:34:15.590Z,86.54
2023-05-23T00:36:43.880Z,86.55
2023-05-23T00:39:20.162Z,86.93
2023-05-23T00:41:51.806Z,87.13
2023-05-23T00:44:20.576Z,87.21
2023-05-23T00:46:54.432Z,87.80
2023-05-23T00:49:22.119Z,87.53
2023-05-23T00:51:49.918Z,87.79
2023-05-23T00:54:21.236Z,87.91
2023-05-23T00:56:48.943Z,87.87
2023-05-23T00:59:17.089Z,87.04
2023-05-23T01:01:47.422Z,87.43
2023-05-23T01:04:16.975Z,87.61
2023-05-23T01:06:47.349Z,87.40
2023-05-23T01:09:16.578Z,87.55
2023-05-23T01:11:59.016Z,88.51
2023-05-23T01:14:38.382Z,88.90
2023-05-23T01:17:14.761Z,88.88
2023-05-23T01:20:02.799Z,88.44
2023-05-23T01:22:50.898Z,88.91
2023-05-23T01:25:40.354Z,88.26
2023-05-23T01:28:12.126Z,88.19
2023-05-23T01:30:42.180Z,88.21
2023-05-23T01:33:12.128Z,87.94
2023-05-23T01:35:44.001Z,87.80
2023-05-23T01:38:11.126Z,88.36
2023-05-23T01:40:38.315Z,89.10
2023-05-23T01:43:08.037Z,88.61
2023-05-23T01:45:35.648Z,88.66
2023-05-23T01:48:04.214Z,88.18
2023-05-23T01:50:32.802Z,87.70
2023-05-23T01:53:02.782Z,88.42
2023-05-23T01:55:29.885Z,88.31
2023-05-23T01:57:58.316Z,88.44
2023-05-23T02:00:25.779Z,87.54
2023-05-23T02:02:52.965Z,88.28
2023-05-23T02:05:20.149Z,87.55
2023-05-23T02:07:47.073Z,86.57
2023-05-23T02:10:14.405Z,86.48
2023-05-23T02:12:41.324Z,86.31
2023-05-23T02:15:09.082Z,85.27
2023-05-23T02:17:36.276Z,85.56
2023-05-23T02:20:03.433Z,84.98
2023-05-23T02:22:30.503Z,85.39
2023-05-23T02:24:57.346Z,85.46
2023-05-23T02:27:24.448Z,85.80
2023-05-23T02:29:51.487Z,86.17
2023-05-23T02:32:18.518Z,86.20
2023-05-23T02:34:46.984Z,86.27
2023-05-23T02:37:15.028Z,86.94
2023-05-23T02:39:41.858Z,86.79
2023-05-23T02:42:09.041Z,87.08
2023-05-23T02:44:36.008Z,86.60
2023-05-23T02:47:02.915Z,86.75
2023-05-23T02:49:30.110Z,87.27
2023-05-23T02:51:56.942Z,87.26
2023-05-23T02:54:24.052Z,87.46
2023-05-23T02:56:52.579Z,86.50
2023-05-23T02:59:19.423Z,86.81
2023-05-23T03:01:46.546Z,87.12
2023-05-23T03:04:14.041Z,86.42
2023-05-23T03:06:42.446Z,86.43
2023-05-23T03:09:10.197Z,86.99
2023-05-23T03:11:37.849Z,87.46
2023-05-23T03:14:04.924Z,87.36
2023-05-23T03:16:32.196Z,86.92
2023-05-23T03:18:59.972Z,87.24
2023-05-23T03:21:27.242Z,86.94
2023-05-23T03:23:54.115Z,87.02
2023-05-23T03:26:22.232Z,87.34
2023-05-23T03:28:51.376Z,87.10
2023-05-23T03:31:18.512Z,86.79
2023-05-23T03:33:45.803Z,86.13
2023-05-23T03:36:12.901Z,85.54
2023-05-23T03:38:39.812Z,85.90
2023-05-23T03:41:07.214Z,86.09
2023-05-23T03:43:34.412Z,86.00
2023-05-23T03:46:01.411Z,85.55
2023-05-23T03:48:30.781Z,85.02
2023-05-23T03:50:57.703Z,85.67
2023-05-23T03:53:25.055Z,85.57
2023-05-23T03:55:54.254Z,85.74
2023-05-23T03:58:21.430Z,85.59
2023-05-23T04:00:51.683Z,86.13
2023-05-23T04:03:18.988Z,86.02
2023-05-23T04:05:46.122Z,86.53
2023-05-23T04:08:13.405Z,86.65
2023-05-23T04:10:40.312Z,86.10
2023-05-23T04:13:07.340Z,86.78
2023-05-23T04:15:34.901Z,86.41
2023-05-23T04:18:02.112Z,86.87
2023-05-23T04:20:29.267Z,87.27
2023-05-23T04:22:56.272Z,87.17
2023-05-23T04:25:24.567Z,86.54
2023-05-23T04:27:51.609Z,86.69
2023-05-23T04:30:18.670Z,86.38
2023-05-23T04:32:46.313Z,86.71
2023-05-23T04:35:14.553Z,86.63
2023-05-23T04:37:42.675Z,86.38
2023-05-23T04:40:10.306Z,86.38
2023-05-23T04:42:37.586Z,85.56
2023-05-23T04:45:05.161Z,85.58
2023-05-23T04:47:37.169Z,85.16
2023-05-23T04:50:05.777Z,84.74
2023-05-23T04:52:34.388Z,84.06
2023-05-23T04:55:02.053Z,85.06
2023-05-23T04:57:29.239Z,85.32
2023-05-23T04:59:57.381Z,86.18
2023-05-23T05:02:24.485Z,85.85
2023-05-23T05:04:51.659Z,85.60
2023-05-23T05:07:18.943Z,84.94
2023-05-23T05:09:46.052Z,84.70
2023-05-23T05:12:13.092Z,85.38
2023-05-23T05:14:40.355Z,85.16
2023-05-23T05:17:07.555Z,85.29
2023-05-23T05:19:37.775Z,85.12
2023-05-23T05:22:05.379Z,85.76
2023-05-23T05:24:33.160Z,86.28
2023-05-23T05:27:00.301Z,86.84
2023-05-23T05:29:27.411Z,86.94
2023-05-23T05:31:54.198Z,86.07
2023-05-23T05:34:21.566Z,86.11
2023-05-23T05:36:48.582Z,86.14
2023-05-23T05:39:15.759Z,86.55
2023-05-23T05:41:42.736Z,86.29
2023-05-23T05:44:10.378Z,85.36
2023-05-23T05:46:37.750Z,85.82
2023-05-23T05:49:05.062Z,85.81
2023-05-23T05:51:32.217Z,85.52
2023-05-23T05:53:59.174Z,85.19
2023-05-23T05:56:26.618Z,85.10
2023-05-23T05:58:53.886Z,85.59
2023-05-23T06:01:20.967Z,85.45
2023-05-23T06:03:48.477Z,84.87
2023-05-23T06:06:15.617Z,84.79
2023-05-23T06:08:43.396Z,84.97
2023-05-23T06:11:10.458Z,84.52
2023-05-23T06:13:37.357Z,84.17
2023-05-23T06:16:04.433Z,83.50
2023-05-23T06:18:31.336Z,83.47
2023-05-23T06:21:04.181Z,83.81
2023-05-23T06:23:31.306Z,83.06
2023-05-23T06:25:59.873Z,83.06
2023-05-23T06:28:26.852Z,82.72
2023-05-23T06:30:53.753Z,82.99
2023-05-23T06:33:20.677Z,82.18
2023-05-23T06:35:47.501Z,81.61
2023-05-23T06:38:15.819Z,80.53
2023-05-23T06:40:44.674Z,79.98
2023-05-23T06:43:11.617Z,78.37
2023-05-23T06:45:38.677Z,79.30
2023-05-23T06:48:06.177Z,79.88
2023-05-23T06:50:33.367Z,80.87
2023-05-23T06:53:00.342Z,81.72
2023-05-23T06:55:28.536Z,83.12
2023-05-23T06:57:55.333Z,83.16
2023-05-23T07:00:22.373Z,82.98
2023-05-23T07:02:49.360Z,83.01
2023-05-23T07:05:17.700Z,83.87
2023-05-23T07:07:44.651Z,84.46
2023-05-23T07:10:11.858Z,84.88
2023-05-23T07:12:39.007Z,85.57
2023-05-23T07:15:06.436Z,85.26
2023-05-23T07:17:33.496Z,85.38
2023-05-23T07:20:00.373Z,84.33
2023-05-23T07:22:27.314Z,84.00
2023-05-23T07:24:54.323Z,83.41
2023-05-23T07:27:21.380Z,83.28
2023-05-23T07:29:48.248Z,82.81
2023-05-23T07:32:15.508Z,82.03
2023-05-23T07:34:42.475Z,81.06
2023-05-23T07:37:09.461Z,81.02
2023-05-23T07:39:36.278Z,80.67
2023-05-23T07:42:03.288Z,80.93
2023-05-23T07:44:30.274Z,80.91
2023-05-23T07:46:57.354Z,80.91
2023-05-23T07:49:24.370Z,81.29
2023-05-23T07:51:51.416Z,81.58
2023-05-23T07:54:18.321Z,81.80
2023-05-23T07:56:45.471Z,81.96
2023-05-23T07:59:12.356Z,82.73
2023-05-23T08:01:39.316Z,84.03
2023-05-23T08:04:06.724Z,84.33
2023-05-23T08:06:33.878Z,84.33
2023-05-23T08:09:02.350Z,84.49
2023-05-23T08:11:30.838Z,84.54
2023-05-23T08:13:59.347Z,85.08
2023-05-23T08:16:28.497Z,85.55
2023-05-23T08:18:55.438Z,86.67
2023-05-23T08:21:24.137Z,86.13
2023-05-23T08:23:51.144Z,87.53
2023-05-23T08:26:18.136Z,87.51
2023-05-23T08:28:45.106Z,86.68
2023-05-23T08:31:12.179Z,86.57
2023-05-23T08:33:39.079Z,86.12
2023-05-23T08:36:06.235Z,85.79
2023-05-23T08:38:33.095Z,84.94
2023-05-23T08:41:02.131Z,85.44
2023-05-23T08:43:29.524Z,85.83
2023-05-23T08:45:57.513Z,85.29
2023-05-23T08:48:27.418Z,85.36
2023-05-23T08:50:54.402Z,84.80
2023-05-23T08:53:23.767Z,83.73
2023-05-23T08:55:55.955Z,83.32
2023-05-23T08:58:25.001Z,83.45
2023-05-23T09:00:53.998Z,83.41
2023-05-23T09:03:21.654Z,82.76
2023-05-23T09:05:50.368Z,82.74
2023-05-23T09:08:17.452Z,82.33
2023-05-23T09:10:44.300Z,82.88
2023-05-23T09:13:11.265Z,82.46
2023-05-23T09:15:38.882Z,81.95
2023-05-23T09:18:06.060Z,81.81
2023-05-23T09:20:33.455Z,80.76
2023-05-23T09:23:02.939Z,80.99
2023-05-23T09:25:31.201Z,79.86
2023-05-23T09:28:00.288Z,79.66
2023-05-23T09:30:27.187Z,78.48
2023-05-23T09:33:02.037Z,77.63
2023-05-23T09:35:31.195Z,77.38
2023-05-23T09:38:01.953Z,77.35
2023-05-23T09:40:33.258Z,77.32
2023-05-23T09:43:04.641Z,78.02
2023-05-23T09:45:32.700Z,77.39
2023-05-23T09:48:00.137Z,75.75
2023-05-23T09:50:33.809Z,75.24
2023-05-23T09:53:01.679Z,73.61
2023-05-23T09:55:28.798Z,72.56
2023-05-23T09:57:58.690Z,71.89
2023-05-23T10:00:26.368Z,72.34
2023-05-23T10:03:02.086Z,72.34
2023-05-23T10:05:44.485Z,72.34
2023-05-23T10:08:19.417Z,72.83
2023-05-23T10:11:11.917Z,71.77
2023-05-23T10:13:43.721Z,69.52
2023-05-23T10:16:23.746Z,69.72
2023-05-23T10:18:58.383Z,69.79
2023-05-23T10:21:33.735Z,70.36
2023-05-23T10:24:01.805Z,69.31
2023-05-23T10:26:28.982Z,69.40
2023-05-23T10:28:57.712Z,69.37
2023-05-23T10:31:25.417Z,67.48
2023-05-23T10:34:17.875Z,66.13
2023-05-23T10:36:58.058Z,65.31
2023-05-23T10:39:50.165Z,64.08
2023-05-23T10:42:30.764Z,61.07
2023-05-23T10:45:23.736Z,54.09
2023-05-23T10:47:53.016Z,57.91
2023-05-23T10:50:37.531Z,59.23
2023-05-23T10:53:09.776Z,58.04
2023-05-23T10:55:37.522Z,58.79
2023-05-23T10:58:21.849Z,57.89
2023-05-23T11:00:57.069Z,57.55
2023-05-23T11:03:46.122Z,55.09
2023-05-23T11:06:45.041Z,46.43
2023-05-23T11:09:21.086Z,47.78
2023-05-23T11:11:58.242Z,39.55
2023-05-23T11:14:38.323Z,38.73
2023-05-23T11:17:14.161Z,36.72
2023-05-23T11:19:57.134Z,36.41
2023-05-23T11:22:28.110Z,38.56
2023-05-23T11:24:56.185Z,42.35
2023-05-23T11:27:28.963Z,42.54
2023-05-23T11:30:09.867Z,47.31
2023-05-23T11:32:37.763Z,39.19
2023-05-23T11:35:07.181Z,35.05
2023-05-23T11:37:34.805Z,32.15
2023-05-23T11:40:27.483Z,33.23
2023-05-23T11:42:58.004Z,36.41
2023-05-23T11:45:26.073Z,33.96
2023-05-23T11:47:53.384Z,31.34
2023-05-23T11:50:24.594Z,31.28
2023-05-23T11:52:52.176Z,29.37
2023-05-23T11:55:23.577Z,29.23
2023-05-23T11:57:52.085Z,29.50
2023-05-23T12:00:19.890Z,32.64
2023-05-23T12:02:49.966Z,33.33
2023-05-23T12:05:17.175Z,35.68
2023-05-23T12:07:49.771Z,35.39
2023-05-23T12:10:18.127Z,36.82
2023-05-23T12:12:45.801Z,36.06
2023-05-23T12:15:13.813Z,37.65
2023-05-23T12:17:47.346Z,38.21
2023-05-23T12:20:14.487Z,38.13
2023-05-23T12:22:42.575Z,39.15
2023-05-23T12:25:11.434Z,39.04
2023-05-23T12:27:42.018Z,40.57
2023-05-23T12:30:16.494Z,40.33
2023-05-23T12:32:45.514Z,40.56
2023-05-23T12:35:14.184Z,41.40
2023-05-23T12:37:43.902Z,38.89
2023-05-23T12:40:19.911Z,41.45
2023-05-23T12:42:58.731Z,39.26
2023-05-23T12:45:33.188Z,41.71
2023-05-23T12:48:01.430Z,40.98
2023-05-23T12:50:28.568Z,40.37
2023-05-23T12:52:56.445Z,40.99
2023-05-23T12:55:23.359Z,39.47
2023-05-23T12:57:50.489Z,38.34
2023-05-23T13:00:18.505Z,39.89
2023-05-23T13:02:45.931Z,39.71
2023-05-23T13:05:13.052Z,41.42
2023-05-23T13:07:40.092Z,40.12
2023-05-23T13:10:07.578Z,42.74
2023-05-23T13:12:35.029Z,42.29
2023-05-23T13:15:01.960Z,42.00
2023-05-23T13:17:28.877Z,41.57
2023-05-23T13:19:55.787Z,43.80
2023-05-23T13:22:22.692Z,42.84
2023-05-23T13:24:49.561Z,43.35
2023-05-23T13:27:17.001Z,41.34
2023-05-23T13:29:45.421Z,40.00
2023-05-23T13:32:12.353Z,39.79
2023-05-23T13:34:39.806Z,39.81
2023-05-23T13:37:06.628Z,40.27
2023-05-23T13:39:33.592Z,41.91
2023-05-23T13:42:00.829Z,43.20
2023-05-23T13:44:29.341Z,43.35
2023-05-23T13:46:58.888Z,43.96
2023-05-23T13:49:25.907Z,44.10
2023-05-23T13:51:52.770Z,45.15
2023-05-23T13:54:19.828Z,44.44
2023-05-23T13:56:46.717Z,44.16
2023-05-23T13:59:14.130Z,44.95
2023-05-23T14:01:41.534Z,46.69
2023-05-23T14:04:08.554Z,46.00
2023-05-23T14:06:36.904Z,47.96
2023-05-23T14:09:04.113Z,47.67
2023-05-23T14:11:31.189Z,48.07
2023-05-23T14:13:58.123Z,47.43
2023-05-23T14:16:25.116Z,46.39
2023-05-23T14:18:52.578Z,46.77
2023-05-23T14:21:19.493Z,47.54
2023-05-23T14:23:46.465Z,47.27
2023-05-23T14:26:15.716Z,47.96
2023-05-23T14:28:42.710Z,47.78
2023-05-23T14:31:09.710Z,48.26
2023-05-23T14:33:36.534Z,46.02
2023-05-23T14:36:04.209Z,44.64
2023-05-23T14:38:31.051Z,42.71
2023-05-23T14:40:59.370Z,44.50
2023-05-23T14:43:26.353Z,46.72
2023-05-23T14:45:53.227Z,47.16
2023-05-23T14:48:20.198Z,49.67
2023-05-23T14:50:47.029Z,50.65
2023-05-23T14:53:13.928Z,51.51
2023-05-23T14:55:41.507Z,51.72
2023-05-23T14:58:08.750Z,51.13
2023-05-23T15:00:35.584Z,50.35
2023-05-23T15:03:02.549Z,48.77
2023-05-23T15:05:29.442Z,48.85
2023-05-23T15:07:56.714Z,48.06
2023-05-23T15:10:23.629Z,47.90
2023-05-23T15:12:50.733Z,47.08
2023-05-23T15:15:23.294Z,47.57
2023-05-23T15:17:51.411Z,48.74
2023-05-23T15:20:18.778Z,48.77
2023-05-23T15:22:45.954Z,48.67
2023-05-23T15:25:12.834Z,48.43
2023-05-23T15:27:39.611Z,49.07
2023-05-23T15:30:07.280Z,50.99
2023-05-23T15:32:34.320Z,48.07
2023-05-23T15:35:01.245Z,49.35
2023-05-23T15:37:30.006Z,48.13
2023-05-23T15:39:56.996Z,48.72
2023-05-23T15:42:23.920Z,47.66
2023-05-23T15:44:51.386Z,47.84
2023-05-23T15:47:19.079Z,49.45
2023-05-23T15:49:46.056Z,50.14
2023-05-23T15:52:13.280Z,50.93
2023-05-23T15:54:40.156Z,52.48
2023-05-23T15:57:07.140Z,52.76
2023-05-23T15:59:36.488Z,52.25
2023-05-23T16:02:07.049Z,52.43
2023-05-23T16:04:36.347Z,52.78
2023-05-23T16:07:03.988Z,53.32
2023-05-23T16:09:30.896Z,51.73
2023-05-23T16:11:58.679Z,51.18
2023-05-23T16:14:25.966Z,52.98
2023-05-23T16:16:52.883Z,53.51
2023-05-23T16:19:23.010Z,52.45
2023-05-23T16:21:50.821Z,54.37
2023-05-23T16:24:18.601Z,54.20
2023-05-23T16:26:45.586Z,53.52
2023-05-23T16:29:12.623Z,53.38
2023-05-23T16:31:39.678Z,52.13
2023-05-23T16:34:06.693Z,52.51
2023-05-23T16:36:33.695Z,50.82
2023-05-23T16:39:00.573Z,51.82
2023-05-23T16:41:28.569Z,51.32
2023-05-23T16:43:55.950Z,52.96
2023-05-23T16:46:23.128Z,52.91
2023-05-23T16:48:50.456Z,52.80
2023-05-23T16:51:17.537Z,54.35
2023-05-23T16:53:44.335Z,56.30
2023-05-23T16:56:11.255Z,54.80
2023-05-23T16:58:39.066Z,53.93
2023-05-23T17:01:07.226Z,52.62
2023-05-23T17:03:34.618Z,54.42
2023-05-23T17:06:01.668Z,56.38
2023-05-23T17:08:28.674Z,56.93
2023-05-23T17:10:55.556Z,57.30
2023-05-23T17:13:22.333Z,57.01
2023-05-23T17:15:51.588Z,56.00
2023-05-23T17:18:18.987Z,58.12
2023-05-23T17:20:46.070Z,59.27
2023-05-23T17:23:13.151Z,58.95
2023-05-23T17:25:40.517Z,58.81
2023-05-23T17:28:07.955Z,58.37
2023-05-23T17:30:35.146Z,58.61
2023-05-23T17:33:02.301Z,58.79
2023-05-23T17:35:29.312Z,59.49
2023-05-23T17:37:58.487Z,59.79
2023-05-23T17:40:25.839Z,59.72
2023-05-23T17:42:53.403Z,60.38
2023-05-23T17:45:20.230Z,60.54
2023-05-23T17:47:47.437Z,60.70
2023-05-23T17:50:14.478Z,59.84
2023-05-23T17:52:41.999Z,61.15
2023-05-23T17:55:09.582Z,59.49
2023-05-23T17:57:36.808Z,60.33
2023-05-23T18:00:04.294Z,60.80
2023-05-23T18:02:31.680Z,60.84
2023-05-23T18:04:59.401Z,62.22
2023-05-23T18:07:26.645Z,62.49
2023-05-23T18:09:53.580Z,63.27
2023-05-23T18:12:21.298Z,62.64
2023-05-23T18:14:48.471Z,62.32
2023-05-23T18:17:17.624Z,62.39
2023-05-23T18:19:45.921Z,62.42
2023-05-23T18:22:14.554Z,63.45
2023-05-23T18:24:41.955Z,63.30
2023-05-23T18:27:09.116Z,63.55
2023-05-23T18:29:36.562Z,64.30
2023-05-23T18:32:04.017Z,63.25
2023-05-23T18:34:30.989Z,63.96
2023-05-23T18:36:57.986Z,64.08
2023-05-23T18:39:25.150Z,64.44
2023-05-23T18:41:52.334Z,64.68
2023-05-23T18:44:20.855Z,64.09
2023-05-23T18:46:48.325Z,65.37
2023-05-23T18:49:15.386Z,64.14
2023-05-23T18:51:43.099Z,64.82
2023-05-23T18:54:10.222Z,64.10
2023-05-23T18:56:37.399Z,65.27
2023-05-23T18:59:04.542Z,65.39
2023-05-23T19:01:31.414Z,65.95
2023-05-23T19:03:58.496Z,65.45
2023-05-23T19:06:25.895Z,64.93
2023-05-23T19:08:52.901Z,64.91
2023-05-23T19:11:19.749Z,65.01
2023-05-23T19:13:46.797Z,64.98
2023-05-23T19:16:13.826Z,66.26
2023-05-23T19:18:40.645Z,65.38
2023-05-23T19:21:07.637Z,65.13
2023-05-23T19:23:34.700Z,65.34
2023-05-23T19:26:02.347Z,65.38
2023-05-23T19:28:29.188Z,65.69
2023-05-23T19:30:56.512Z,65.10
2023-05-23T19:33:23.501Z,66.00
2023-05-23T19:35:50.428Z,66.17
2023-05-23T19:38:17.483Z,67.01
2023-05-23T19:40:47.341Z,66.10
2023-05-23T19:43:14.217Z,66.90
2023-05-23T19:45:41.320Z,66.88
2023-05-23T19:48:08.351Z,66.49
2023-05-23T19:50:35.292Z,66.80
2023-05-23T19:53:02.315Z,67.59
2023-05-23T19:55:29.130Z,67.00
2023-05-23T19:57:56.112Z,67.79
2023-05-23T20:00:23.512Z,66.53
2023-05-23T20:02:50.831Z,66.64
2023-05-23T20:05:17.974Z,66.82
2023-05-23T20:07:44.887Z,66.66
2023-05-23T20:10:12.129Z,67.09
2023-05-23T20:12:39.170Z,67.87
2023-05-23T20:15:06.783Z,68.76
2023-05-23T20:17:33.729Z,68.48
2023-05-23T20:20:01.074Z,68.22
2023-05-23T20:22:28.435Z,69.23
2023-05-23T20:24:55.827Z,69.45
2023-05-23T20:27:22.670Z,69.02
2023-05-23T20:29:50.670Z,69.24
2023-05-23T20:32:17.785Z,68.11
2023-05-23T20:34:44.812Z,68.14
2023-05-23T20:37:13.987Z,68.60
2023-05-23T20:39:44.518Z,69.94
2023-05-23T20:42:11.764Z,69.42
2023-05-23T20:44:38.920Z,69.41
2023-05-23T20:47:07.011Z,69.56
2023-05-23T20:49:35.008Z,69.32
2023-05-23T20:52:02.514Z,70.29
2023-05-23T20:54:29.605Z,71.28
2023-05-23T20:56:56.780Z,70.32
2023-05-23T20:59:26.487Z,69.89
2023-05-23T21:01:53.832Z,70.51
2023-05-23T21:04:20.816Z,71.15
2023-05-23T21:06:47.998Z,72.54
2023-05-23T21:09:16.672Z,72.00
2023-05-23T21:11:44.810Z,72.96
2023-05-23T21:14:11.792Z,72.92
2023-05-23T21:16:38.657Z,73.32
2023-05-23T21:19:05.600Z,73.76
2023-05-23T21:21:32.496Z,74.49
2023-05-23T21:23:59.307Z,75.25
2023-05-23T21:26:26.168Z,75.73
2023-05-23T21:28:53.079Z,74.81
2023-05-23T21:31:29.803Z,74.01
2023-05-23T21:34:18.453Z,74.04
2023-05-23T21:36:49.075Z,74.09
2023-05-23T21:39:15.987Z,72.69
2023-05-23T21:41:42.870Z,72.41
2023-05-23T21:44:09.987Z,72.71
2023-05-23T21:46:37.555Z,72.03
2023-05-23T21:49:04.476Z,72.14
2023-05-23T21:51:31.388Z,71.44
2023-05-23T21:53:58.510Z,71.69
2023-05-23T21:56:26.590Z,72.43
2023-05-23T21:58:53.488Z,71.73
2023-05-23T22:01:20.511Z,71.21
2023-05-23T22:03:47.495Z,70.78
2023-05-23T22:06:14.685Z,71.59
2023-05-23T22:08:42.367Z,71.74
2023-05-23T22:11:10.555Z,71.38
2023-05-23T22:13:37.452Z,72.32
2023-05-23T22:16:12.996Z,72.36
2023-05-23T22:18:51.403Z,72.65
2023-05-23T22:21:21.413Z,72.18
2023-05-23T22:23:48.360Z,73.05
2023-05-23T22:26:15.426Z,73.17
2023-05-23T22:28:42.690Z,72.96
2023-05-23T22:31:12.053Z,73.41
2023-05-23T22:33:41.285Z,72.76
2023-05-23T22:36:09.916Z,72.81
2023-05-23T22:38:38.046Z,73.37
2023-05-23T22:41:05.505Z,74.03
2023-05-23T22:43:32.565Z,73.11
2023-05-23T22:45:59.544Z,74.05
2023-05-23T22:48:26.712Z,73.44
2023-05-23T22:50:57.392Z,73.22
2023-05-23T22:53:24.416Z,72.34
2023-05-23T22:55:51.351Z,72.17
2023-05-23T22:58:20.817Z,72.04
2023-05-23T23:00:47.990Z,71.79
2023-05-23T23:03:15.641Z,71.73
2023-05-23T23:05:42.658Z,71.11
2023-05-23T23:08:09.583Z,71.42
2023-05-23T23:10:36.443Z,71.61
2023-05-23T23:13:03.446Z,71.67
2023-05-23T23:15:30.501Z,71.68
2023-05-23T23:17:57.770Z,72.17
2023-05-23T23:20:25.123Z,71.74
2023-05-23T23:22:52.346Z,72.73
2023-05-23T23:25:19.447Z,73.11
2023-05-23T23:27:46.328Z,72.40
2023-05-23T23:30:13.413Z,72.05
2023-05-23T23:32:40.333Z,72.34
2023-05-23T23:35:07.666Z,71.80
2023-05-23T23:37:34.465Z,72.17
2023-05-23T23:40:01.456Z,70.69
2023-05-23T23:42:28.525Z,70.60
2023-05-23T23:44:55.442Z,71.73
2023-05-23T23:47:22.360Z,71.56
2023-05-23T23:49:49.400Z,71.42
2023-05-23T23:52:16.404Z,72.48
2023-05-23T23:54:43.426Z,72.31
2023-05-23T23:57:14.264Z,72.30
2023-05-23T23:59:41.877Z,72.58
